Time;durP1;ratioP1;P1;durP2;ratioP2;P2;SDS_P1;SDS_P2;PMS_P1;PMS_P2;Temp;Humidity;BMP_temperature;BMP_pressure;BME280_temperature;BME280_humidity;BME280_pressure;Samples;Min_cycle;Max_cycle;Signal;HPM_P1;HPM_P2
2022/08/24 00:01:49;;;;;;;4.93;0.80;;;;;;;22.91;85.48;101148.34;7390383;19;20014;-67
2022/08/24 00:04:16;;;;;;;3.38;0.60;;;;;;;22.87;85.94;101139.09;7386398;19;20509;-67
2022/08/24 00:06:46;;;;;;;3.40;1.08;;;;;;;22.84;86.04;101142.25;7391108;19;20006;-67
2022/08/24 00:09:13;;;;;;;3.97;0.95;;;;;;;22.80;86.06;101141.88;7389160;19;20018;-68
2022/08/24 00:11:41;;;;;;;1.50;0.57;;;;;;;22.78;85.83;101135.91;7389504;19;20015;-67
2022/08/24 00:14:10;;;;;;;3.20;0.80;;;;;;;22.79;86.45;101132.19;7388506;19;20027;-66
2022/08/24 00:16:40;;;;;;;1.83;0.70;;;;;;;22.80;86.84;101139.22;7391753;19;20018;-65
2022/08/24 00:19:11;;;;;;;2.45;0.60;;;;;;;22.80;86.17;101139.22;7388681;19;20279;-66
2022/08/24 00:21:38;;;;;;;3.65;1.02;;;;;;;22.80;86.50;101135.69;7389771;19;20094;-67
2022/08/24 00:24:05;;;;;;;2.30;0.65;;;;;;;22.79;86.10;101142.94;7390193;19;20003;-66
2022/08/24 00:26:42;;;;;;;2.75;0.68;;;;;;;22.79;86.61;101134.88;7383919;19;20034;-66
2022/08/24 00:29:16;;;;;;;3.20;1.23;;;;;;;22.79;86.93;101139.44;7389327;19;20018;-66
2022/08/24 00:31:43;;;;;;;2.78;0.70;;;;;;;22.80;87.07;101146.44;7390897;19;20506;-67
2022/08/24 00:34:12;;;;;;;1.92;0.55;;;;;;;22.80;87.09;101144.56;7385774;19;20261;-67
2022/08/24 00:36:44;;;;;;;1.52;0.60;;;;;;;22.79;86.75;101147.47;7388725;19;20030;-63
2022/08/24 00:39:12;;;;;;;;;;;;;;;22.78;86.54;101143.97;7387304;19;20109;-63
2022/08/24 00:41:43;;;;;;;2.80;0.60;;;;;;;22.75;86.74;101143.59;7391401;19;19918;-65
2022/08/24 00:44:10;;;;;;;1.67;0.60;;;;;;;22.72;87.21;101134.13;7390023;19;20022;-63
2022/08/24 00:46:59;;;;;;;4.13;1.42;;;;;;;22.76;88.03;101143.38;7388438;19;20018;-63
2022/08/24 00:49:47;;;;;;;2.50;0.80;;;;;;;22.76;87.71;101126.44;7386509;19;20463;-67
2022/08/24 00:52:24;;;;;;;2.33;0.68;;;;;;;22.74;87.40;101132.06;7389583;19;20053;-66
2022/08/24 00:54:59;;;;;;;3.20;0.57;;;;;;;22.72;87.26;101130.63;7388846;19;20022;-67
2022/08/24 00:57:32;;;;;;;2.58;0.63;;;;;;;22.70;87.23;101125.47;7390183;19;20029;-67
2022/08/24 01:00:05;;;;;;;2.17;0.60;;;;;;;22.71;87.26;101135.16;7389249;19;20037;-67
2022/08/24 01:02:36;;;;;;;1.08;0.50;;;;;;;22.72;87.04;101130.63;7388774;19;20022;-66
2022/08/24 01:05:08;;;;;;;2.35;0.70;;;;;;;22.71;87.63;101128.97;7384650;19;20039;-66
2022/08/24 01:07:37;;;;;;;3.15;0.60;;;;;;;22.71;87.62;101126.28;7387643;19;20442;-67
2022/08/24 01:10:13;;;;;;;4.05;0.70;;;;;;;22.71;86.89;101131.66;7389459;19;20034;-67
2022/08/24 01:12:47;;;;;;;1.27;0.50;;;;;;;22.69;87.09;101131.88;7388667;19;20010;-66
2022/08/24 01:15:29;;;;;;;2.35;0.60;;;;;;;22.68;86.82;101132.91;7387633;19;20010;-67
2022/08/24 01:20:48;;;;;;;1.42;0.40;;;;;;;22.66;87.21;101131.47;7386770;19;20156;-63
2022/08/24 01:23:33;;;;;;;1.58;0.60;;;;;;;22.67;87.53;101133.13;7389321;19;20613;-63
2022/08/24 01:26:03;;;;;;;2.78;0.40;;;;;;;22.68;87.00;101135.59;7387900;19;20014;-63
2022/08/24 01:28:31;;;;;;;3.05;0.40;;;;;;;22.70;87.16;101140.75;7388896;19;20026;-65
2022/08/24 01:30:58;;;;;;;1.60;0.43;;;;;;;22.70;86.97;101143.44;7388208;19;20058;-62
2022/08/24 01:33:29;;;;;;;1.77;0.40;;;;;;;22.70;86.97;101138.06;7385839;19;20022;-64
2022/08/24 01:36:17;;;;;;;2.30;0.43;;;;;;;22.71;86.52;101137.03;7385094;19;20011;-65
2022/08/24 01:38:46;;;;;;;3.78;0.50;;;;;;;22.71;86.73;101139.72;7386442;19;20389;-62
2022/08/24 01:41:13;;;;;;;3.17;0.50;;;;;;;22.72;86.78;101131.44;7389890;19;20501;-66
2022/08/24 01:43:41;;;;;;;2.35;0.50;;;;;;;22.72;87.08;101138.69;7387735;19;20352;-67
2022/08/24 01:46:09;;;;;;;1.27;0.40;;;;;;;22.72;86.54;101131.44;7386264;19;20078;-67
2022/08/24 01:48:36;;;;;;;2.17;0.70;;;;;;;22.70;86.51;101128.16;7388697;19;20363;-68
2022/08/24 01:51:04;;;;;;;0.88;0.40;;;;;;;22.67;86.54;101130.44;7386500;19;20094;-67
2022/08/24 01:53:31;;;;;;;2.38;0.30;;;;;;;22.63;86.81;101130.09;7387711;19;20557;-66
2022/08/24 01:56:00;;;;;;;2.95;0.43;;;;;;;22.63;87.22;101126.56;7387499;19;20074;-67
2022/08/24 01:58:27;;;;;;;1.35;0.38;;;;;;;22.60;87.10;101125.19;7388004;19;20014;-67
2022/08/24 02:00:54;;;;;;;1.65;0.30;;;;;;;22.59;87.37;101126.22;7386275;19;20029;-69
2022/08/24 02:03:23;;;;;;;2.50;0.30;;;;;;;22.60;87.07;101136.69;7385996;19;20316;-67
2022/08/24 02:05:56;;;;;;;1.90;0.35;;;;;;;22.61;86.84;101134.84;7382701;19;20038;-67
2022/08/24 02:08:23;;;;;;;2.25;0.32;;;;;;;22.61;87.03;101137.53;7387251;19;20014;-67
2022/08/24 02:10:50;;;;;;;0.70;0.30;;;;;;;22.60;87.06;101133.22;7386716;19;20190;-66
2022/08/24 02:13:22;;;;;;;1.65;0.30;;;;;;;22.58;87.18;101138.81;7384928;19;20375;-67
2022/08/24 02:15:50;;;;;;;1.17;0.40;;;;;;;22.56;86.92;101142.75;7384871;19;20014;-68
2022/08/24 02:18:18;;;;;;;1.05;0.30;;;;;;;22.54;87.46;101140.31;7387733;19;20015;-66
2022/08/24 02:20:45;;;;;;;3.13;0.40;;;;;;;22.55;87.46;101139.25;7382950;19;20044;-66
2022/08/24 02:23:13;;;;;;;2.10;0.30;;;;;;;22.56;87.41;101142.75;7387124;19;20420;-67
2022/08/24 02:25:40;;;;;;;2.25;0.40;;;;;;;22.55;86.94;101147.28;7386459;19;20031;-67
2022/08/24 02:28:07;;;;;;;1.45;0.30;;;;;;;22.56;86.93;101148.09;7385944;19;20372;-67
2022/08/24 02:30:34;;;;;;;2.35;0.40;;;;;;;22.53;87.12;101148.56;7386827;19;20022;-67
2022/08/24 02:33:02;;;;;;;0.80;0.30;;;;;;;22.54;87.44;101151.03;7385502;19;20034;-66
2022/08/24 02:35:30;;;;;;;5.10;1.25;;;;;;;22.54;87.00;101151.03;7385495;19;20017;-66
2022/08/24 02:37:57;;;;;;;3.65;0.40;;;;;;;22.56;87.64;101148.09;7383249;19;20011;-66
2022/08/24 02:40:25;;;;;;;2.50;0.30;;;;;;;22.56;87.42;101148.94;7383527;19;20482;-67
2022/08/24 02:42:53;;;;;;;0.52;0.20;;;;;;;22.57;87.12;101144.38;7381172;19;20018;-67
2022/08/24 02:45:20;;;;;;;1.02;0.22;;;;;;;22.58;86.66;101148.72;7382452;19;20011;-66
2022/08/24 02:47:48;;;;;;;0.85;0.20;;;;;;;22.54;86.92;101151.03;7384233;19;20062;-66
2022/08/24 02:50:16;;;;;;;0.52;0.20;;;;;;;22.49;86.59;101150.88;7380888;19;20010;-66
2022/08/24 02:52:44;;;;;;;1.13;0.20;;;;;;;22.47;86.87;101152.97;7382588;19;20411;-66
2022/08/24 02:55:15;;;;;;;3.40;0.65;;;;;;;22.48;86.83;101151.09;7383773;19;20014;-66
2022/08/24 02:57:47;;;;;;;1.92;0.20;;;;;;;22.49;87.24;101144.69;7383158;19;20017;-66
2022/08/24 03:00:16;;;;;;;2.65;0.30;;;;;;;22.49;87.16;101158.94;7378108;19;20144;-66
2022/08/24 03:02:44;;;;;;;1.58;0.30;;;;;;;22.49;87.03;101148.19;7383916;19;20015;-65
2022/08/24 03:05:13;;;;;;;0.60;0.40;;;;;;;22.49;86.91;101140.16;7380724;19;20018;-66
2022/08/24 03:07:40;;;;;;;2.35;0.25;;;;;;;22.48;86.51;101143.06;7383748;19;20021;-65
2022/08/24 03:10:07;;;;;;;0.98;0.30;;;;;;;22.48;86.58;101154.59;7383791;19;20018;-66
2022/08/24 03:12:34;;;;;;;1.75;0.20;;;;;;;22.47;86.61;101139.56;7381794;19;20017;-66
2022/08/24 03:15:04;;;;;;;1.75;0.60;;;;;;;22.48;86.92;101141.19;7380850;19;20018;-67
2022/08/24 03:17:32;;;;;;;1.30;0.25;;;;;;;22.51;87.53;101148.78;7381061;19;20447;-67
2022/08/24 03:20:00;;;;;;;1.23;0.30;;;;;;;22.51;86.65;101145.28;7379799;19;20014;-66
2022/08/24 03:22:27;;;;;;;1.33;0.20;;;;;;;22.51;86.85;101151.47;7382585;19;20493;-66
2022/08/24 03:24:55;;;;;;;1.50;0.50;;;;;;;22.51;86.75;101145.28;7379848;19;20007;-66
2022/08/24 03:27:22;;;;;;;1.25;0.20;;;;;;;22.49;87.08;101137.47;7379766;19;20053;-66
2022/08/24 03:29:52;;;;;;;1.75;0.20;;;;;;;22.48;86.93;101148.41;7382315;19;20027;-67
2022/08/24 03:32:20;;;;;;;0.95;0.30;;;;;;;22.47;86.75;101144.09;7382980;19;20010;-65
2022/08/24 03:34:47;;;;;;;2.25;0.43;;;;;;;22.47;87.02;101144.91;7378739;19;20351;-66
2022/08/24 03:37:15;;;;;;;1.00;0.30;;;;;;;22.48;87.19;101146.56;7231163;19;2942341;-63
2022/08/24 03:39:51;;;;;;;2.80;0.30;;;;;;;22.47;86.63;101141.41;7382635;19;20042;-63
2022/08/24 03:42:19;;;;;;;1.65;0.40;;;;;;;22.46;87.17;101148.63;7385209;19;20028;-65
2022/08/24 03:44:46;;;;;;;0.77;0.32;;;;;;;22.43;87.15;101146.41;7383241;19;20514;-66
2022/08/24 03:47:13;;;;;;;2.45;0.30;;;;;;;22.43;86.83;101143.72;7383722;19;20670;-65
2022/08/24 03:49:48;;;;;;;1.05;0.40;;;;;;;22.46;87.17;101142.44;7379908;19;20015;-64
2022/08/24 03:52:19;;;;;;;8.60;4.28;;;;;;;22.46;87.05;101140.59;7383799;19;20394;-65
2022/08/24 03:54:47;;;;;;;1.08;0.40;;;;;;;22.48;87.09;101143.06;7381075;19;20090;-64
2022/08/24 03:57:14;;;;;;;1.23;0.28;;;;;;;22.50;86.56;101144.47;7382083;19;20011;-64
2022/08/24 03:59:48;;;;;;;2.35;0.30;;;;;;;22.49;86.64;101140.16;7376466;19;20026;-66
2022/08/24 04:02:18;;;;;;;1.63;0.30;;;;;;;22.48;86.78;101135.81;7383670;19;20465;-65
2022/08/24 04:04:45;;;;;;;2.35;0.30;;;;;;;22.48;87.07;101140.38;7379198;19;20014;-66
2022/08/24 04:07:12;;;;;;;0.68;0.50;;;;;;;22.47;86.69;101142.22;7382480;19;20017;-67
2022/08/24 04:09:39;;;;;;;0.77;0.35;;;;;;;22.47;86.45;101144.91;7381391;19;20019;-66
2022/08/24 04:12:12;;;;;;;1.77;0.30;;;;;;;22.48;86.74;101141.19;7382889;19;20023;-67
2022/08/24 04:14:40;;;;;;;0.82;0.30;;;;;;;22.48;86.78;101143.88;7383363;19;20494;-65
2022/08/24 04:17:07;;;;;;;4.55;0.40;;;;;;;22.47;86.60;101136.88;7383563;19;20018;-65
2022/08/24 04:19:34;;;;;;;3.33;0.43;;;;;;;22.45;86.88;101136.25;7378887;19;20031;-66
2022/08/24 04:22:01;;;;;;;2.05;0.50;;;;;;;22.45;87.03;101140.84;7384488;19;20033;-66
2022/08/24 04:24:28;;;;;;;0.60;0.30;;;;;;;22.42;87.02;101141.25;7382542;19;20015;-65
2022/08/24 04:26:55;;;;;;;1.10;0.40;;;;;;;22.43;86.93;101141.03;7381296;19;20026;-65
2022/08/24 04:29:22;;;;;;;3.67;2.58;;;;;;;22.43;86.94;101137.53;7382395;19;20022;-65
2022/08/24 04:31:49;;;;;;;2.38;0.50;;;;;;;22.45;87.19;101138.94;7383652;19;20011;-66
2022/08/24 04:34:17;;;;;;;1.00;0.40;;;;;;;22.44;87.22;101136.50;7380551;19;20567;-66
2022/08/24 04:36:44;;;;;;;3.38;0.57;;;;;;;22.46;86.90;101147.81;7383734;19;20478;-66
2022/08/24 04:39:12;;;;;;;3.53;0.40;;;;;;;22.46;86.49;101145.13;7384508;19;20063;-65
2022/08/24 04:41:41;;;;;;;1.30;0.30;;;;;;;22.46;86.54;101145.13;7391742;19;20451;-65
2022/08/24 04:44:10;;;;;;;4.30;0.47;;;;;;;22.47;86.29;101149.44;7389609;19;20065;-65
2022/08/24 04:46:38;;;;;;;2.20;0.35;;;;;;;22.46;86.39;101156.69;7389495;19;20077;-66
2022/08/24 04:49:05;;;;;;;8.98;5.43;;;;;;;22.46;86.78;101151.31;7383710;19;20045;-64
2022/08/24 04:51:32;;;;;;;1.75;0.60;;;;;;;22.46;87.32;101158.53;7389865;19;20036;-64
2022/08/24 04:54:03;;;;;;;4.70;0.40;;;;;;;22.47;86.85;101160.19;7387317;19;20090;-63
2022/08/24 04:56:30;;;;;;;2.10;0.40;;;;;;;22.47;86.69;101160.19;7389763;19;20017;-63
2022/08/24 04:58:57;;;;;;;3.35;0.40;;;;;;;22.46;86.68;101155.84;7385945;19;20097;-63
2022/08/24 05:01:27;;;;;;;1.00;0.40;;;;;;;22.43;86.53;101156.31;7389489;19;20451;-63
2022/08/24 05:03:54;;;;;;;2.88;0.50;;;;;;;22.42;86.54;101155.50;7387184;19;20388;-66
2022/08/24 05:06:25;;;;;;;2.58;0.57;;;;;;;22.41;86.66;101156.53;7386076;19;20011;-64
2022/08/24 05:08:52;;;;;;;6.07;2.80;;;;;;;22.42;87.14;101158.19;7388972;19;20019;-63
2022/08/24 05:11:20;;;;;;;1.65;0.80;;;;;;;22.43;87.05;101162.50;7389380;19;20699;-69
2022/08/24 05:13:50;;;;;;;4.35;0.50;;;;;;;22.42;87.10;101165.41;7387842;19;20027;-66
2022/08/24 05:16:17;;;;;;;1.30;0.50;;;;;;;22.40;86.80;101165.59;7388391;19;20052;-66
2022/08/24 05:18:45;;;;;;;2.65;0.63;;;;;;;22.38;86.93;101170.41;7387197;19;20014;-66
2022/08/24 05:21:16;;;;;;;2.13;0.50;;;;;;;22.37;87.05;101171.44;7384391;19;20022;-64
2022/08/24 05:23:45;;;;;;;2.35;0.60;;;;;;;22.34;87.58;101165.69;7388334;19;20082;-63
2022/08/24 05:26:25;;;;;;;2.45;0.60;;;;;;;22.33;87.38;101164.88;7387568;19;20022;-63
2022/08/24 05:29:00;;;;;;;1.88;0.75;;;;;;;22.36;88.46;101174.31;7387996;19;20475;-63
2022/08/24 05:31:29;;;;;;;4.18;0.80;;;;;;;22.36;87.74;101183.19;7388880;19;20025;-63
2022/08/24 05:33:58;;;;;;;1.42;0.60;;;;;;;22.35;88.01;101173.50;7386221;19;20480;-62
2022/08/24 05:36:29;;;;;;;1.85;0.65;;;;;;;22.33;87.60;101189.00;7387067;19;20733;-64
2022/08/24 05:38:59;;;;;;;2.25;0.70;;;;;;;22.31;88.01;101180.34;7385279;19;20465;-63
2022/08/24 05:41:27;;;;;;;2.72;0.60;;;;;;;22.32;88.38;101184.69;7388684;19;20021;-63
2022/08/24 05:43:54;;;;;;;2.65;0.60;;;;;;;22.32;87.91;101182.00;7387082;19;20017;-64
2022/08/24 05:46:21;;;;;;;10.15;7.40;;;;;;;22.32;88.00;101179.31;7387814;19;20408;-63
2022/08/24 05:48:49;;;;;;;3.55;0.90;;;;;;;22.34;88.78;101182.63;7384579;19;20082;-63
2022/08/24 05:51:19;;;;;;;1.40;0.70;;;;;;;22.36;88.60;101185.06;7387138;19;20015;-62
2022/08/24 05:53:46;;;;;;;1.60;0.60;;;;;;;22.37;88.42;101178.66;7384010;19;20417;-64
2022/08/24 05:56:15;;;;;;;1.90;0.70;;;;;;;22.38;87.88;101191.84;7388380;19;20022;-63
2022/08/24 05:58:42;;;;;;;3.65;0.60;;;;;;;22.36;88.08;101191.25;7385214;19;20027;-63
2022/08/24 06:01:15;;;;;;;2.10;0.47;;;;;;;22.37;87.96;101198.25;7387597;19;20055;-63
2022/08/24 06:03:43;;;;;;;4.68;0.65;;;;;;;22.35;87.68;101197.63;7385863;19;20033;-63
2022/08/24 06:06:10;;;;;;;1.67;0.50;;;;;;;22.35;88.01;101200.31;7385155;19;20007;-65
2022/08/24 06:08:40;;;;;;;1.77;0.40;;;;;;;22.38;88.30;101199.06;7387159;19;20018;-62
2022/08/24 06:11:08;;;;;;;5.38;1.42;;;;;;;22.40;87.94;101208.53;7387602;19;20019;-62
2022/08/24 06:13:35;;;;;;;2.17;0.50;;;;;;;22.43;88.41;101201.91;7385750;19;20546;-63
2022/08/24 06:16:13;;;;;;;3.95;0.55;;;;;;;22.45;87.87;101221.31;7386369;19;20021;-63
2022/08/24 06:18:49;;;;;;;4.50;0.60;;;;;;;22.42;87.99;101213.69;7384222;19;20017;-63
2022/08/24 06:21:22;;;;;;;2.80;0.60;;;;;;;22.40;87.72;101213.88;7384299;19;20426;-63
2022/08/24 06:23:50;;;;;;;3.20;0.70;;;;;;;22.38;87.45;101216.00;7383275;19;20026;-63
2022/08/24 06:29:05;;;;;;;2.85;0.80;;;;;;;22.42;87.97;101221.72;7383775;19;20011;-63
2022/08/24 06:31:38;;;;;;;1.70;0.73;;;;;;;22.41;87.31;101217.41;7385391;19;20783;-63
2022/08/24 06:34:08;;;;;;;2.22;0.60;;;;;;;22.41;87.90;101225.44;7381904;19;20025;-63
2022/08/24 06:36:35;;;;;;;2.63;0.80;;;;;;;22.43;87.34;101224.19;7384525;19;20018;-63
2022/08/24 06:39:05;;;;;;;4.72;0.60;;;;;;;22.47;87.87;101220.03;7382371;19;20502;-63
2022/08/24 06:41:35;;;;;;;8.73;5.15;;;;;;;22.50;87.39;101224.13;7384579;19;20021;-63
2022/08/24 06:44:03;;;;;;;3.55;1.00;;;;;;;22.53;88.22;101226.38;7383255;19;20034;-63
2022/08/24 06:46:30;;;;;;;2.60;0.70;;;;;;;22.54;87.62;101228.84;7383918;19;20010;-63
2022/08/24 06:48:58;;;;;;;3.10;0.70;;;;;;;22.56;87.56;101225.91;7381259;19;20019;-62
2022/08/24 06:51:25;;;;;;;4.90;1.30;;;;;;;22.57;87.66;101231.06;7383797;19;20049;-64
2022/08/24 06:53:54;;;;;;;5.55;1.33;;;;;;;22.59;87.49;101230.84;7383418;19;20356;-62
2022/08/24 06:56:22;;;;;;;4.68;0.80;;;;;;;22.59;87.56;101234.38;7384843;19;20014;-62
2022/08/24 06:58:49;;;;;;;6.25;0.73;;;;;;;22.60;87.10;101235.19;7383101;19;20007;-63
2022/08/24 07:01:19;;;;;;;4.10;0.70;;;;;;;22.63;87.20;101239.28;7383413;19;20029;-63
2022/08/24 07:03:46;;;;;;;3.70;0.95;;;;;;;22.64;87.04;101238.25;7383302;19;20084;-63
2022/08/24 07:06:15;;;;;;;3.15;0.70;;;;;;;22.63;86.78;101240.09;7382455;19;20083;-62
2022/08/24 07:08:42;;;;;;;9.32;5.78;;;;;;;22.64;86.84;101239.06;7382289;19;20062;-64
2022/08/24 07:11:11;;;;;;;3.28;0.80;;;;;;;22.67;88.13;101240.47;7383556;19;20021;-63
2022/08/24 07:13:38;;;;;;;3.10;0.90;;;;;;;22.68;87.86;101234.06;7382851;19;20037;-62
2022/08/24 07:16:05;;;;;;;2.80;0.80;;;;;;;22.68;87.35;101237.56;7384053;19;20116;-62
2022/08/24 07:18:32;;;;;;;3.17;0.60;;;;;;;22.68;87.04;101242.09;7383099;19;20014;-63
2022/08/24 07:21:01;;;;;;;4.50;2.00;;;;;;;22.66;86.92;101241.50;7381450;19;20006;-64
2022/08/24 07:23:29;;;;;;;3.80;0.80;;;;;;;22.65;87.47;101237.19;7383063;19;20106;-66
2022/08/24 07:26:13;;;;;;;2.35;0.60;;;;;;;22.67;87.21;101240.47;7383491;19;20014;-67
2022/08/24 07:29:03;;;;;;;2.88;0.80;;;;;;;22.68;86.80;101242.09;7383306;19;20019;-66
2022/08/24 07:31:31;;;;;;;;;;;;;;;22.71;86.43;101247.06;7382454;19;20047;-67
2022/08/24 07:34:02;;;;;;;2.90;1.20;;;;;;;22.70;87.14;101245.41;7380140;19;20319;-66
2022/08/24 07:36:30;;;;;;;2.95;0.60;;;;;;;22.72;86.43;101251.38;7382953;19;20125;-66
2022/08/24 07:38:57;;;;;;;2.83;0.70;;;;;;;22.76;86.26;101258.75;7380927;19;20357;-66
2022/08/24 07:41:26;;;;;;;2.03;0.60;;;;;;;22.79;86.17;101261.03;7384393;19;20033;-66
2022/08/24 07:44:14;;;;;;;2.17;0.70;;;;;;;22.77;86.41;101268.47;7378301;19;20359;-66
2022/08/24 07:46:43;;;;;;;5.70;2.67;;;;;;;22.80;86.20;101264.53;7381622;19;20069;-67
2022/08/24 07:49:10;;;;;;;2.30;0.63;;;;;;;22.85;86.80;101268.19;7379424;19;20014;-67
2022/08/24 07:51:57;;;;;;;3.20;0.55;;;;;;;22.90;86.32;101267.53;7383546;19;20022;-66
2022/08/24 07:54:24;;;;;;;2.40;0.80;;;;;;;22.89;85.98;101265.88;7379334;19;20021;-66
2022/08/24 07:56:51;;;;;;;1.88;0.50;;;;;;;22.89;85.77;101271.25;7382177;19;20021;-71
2022/08/24 07:59:18;;;;;;;3.17;0.60;;;;;;;22.87;85.98;101254.53;7381743;19;20011;-67
2022/08/24 08:01:45;;;;;;;1.90;1.00;;;;;;;22.91;86.74;101261.91;7382601;19;20343;-66
2022/08/24 08:04:14;;;;;;;4.78;0.60;;;;;;;22.92;86.63;101260.88;7379017;19;20010;-66
2022/08/24 08:06:41;;;;;;;1.80;0.50;;;;;;;22.94;85.40;101268.72;7380521;19;20404;-64
2022/08/24 08:09:08;;;;;;;2.55;0.57;;;;;;;22.93;84.68;101273.25;7381387;19;20033;-63
2022/08/24 08:11:35;;;;;;;2.88;0.50;;;;;;;22.96;84.80;101271.97;7383791;19;20079;-62
2022/08/24 08:14:02;;;;;;;3.03;0.68;;;;;;;22.98;84.84;101264.53;7387399;19;20016;-67
2022/08/24 08:16:29;;;;;;;3.63;0.52;;;;;;;22.98;84.87;101259.97;7389268;19;20022;-66
2022/08/24 08:18:56;;;;;;;1.92;0.52;;;;;;;23.01;84.62;101270.25;7386878;19;20090;-66
2022/08/24 08:24:32;;;;;;;2.92;0.80;;;;;;;23.07;84.65;101276.59;7388171;19;20015;-64
2022/08/24 08:27:00;;;;;;;1.58;0.50;;;;;;;23.11;84.77;101277.78;7390325;19;20039;-66
2022/08/24 08:29:30;;;;;;;4.18;0.90;;;;;;;23.14;84.46;101280.03;7388258;19;20074;-66
2022/08/24 08:31:57;;;;;;;10.88;5.85;;;;;;;23.17;83.97;101284.97;7391603;19;20078;-65
2022/08/24 08:34:25;;;;;;;2.92;0.90;;;;;;;23.20;84.14;101276.47;7385516;19;20086;-63
2022/08/24 08:36:52;;;;;;;3.70;0.85;;;;;;;23.22;83.65;101279.72;7390008;19;20018;-64
2022/08/24 08:39:21;;;;;;;4.10;1.65;;;;;;;23.25;83.86;101281.16;7383857;19;20018;-63
2022/08/24 08:41:55;;;;;;;6.53;0.95;;;;;;;23.24;82.63;101284.88;7388820;19;20445;-64
2022/08/24 08:44:28;;;;;;;5.22;1.10;;;;;;;23.23;82.38;101281.38;7387344;19;20491;-65
2022/08/24 08:47:26;;;;;;;7.47;3.60;;;;;;;23.27;83.19;101279.06;7386026;19;20016;-64
2022/08/24 08:50:27;;;;;;;3.45;0.52;;;;;;;23.31;82.62;101281.09;7384528;19;20086;-64
2022/08/24 08:53:00;;;;;;;2.78;1.02;;;;;;;23.35;82.49;101273.38;7386076;19;20358;-66
2022/08/24 08:55:33;;;;;;;2.97;0.75;;;;;;;23.38;81.88;101275.63;7386949;19;20729;-66
2022/08/24 08:58:37;;;;;;;5.38;1.00;;;;;;;23.42;81.90;101279.47;7387245;19;20030;-67
2022/08/24 09:01:42;;;;;;;5.82;0.60;;;;;;;23.43;81.84;101268.53;7389432;19;20017;-67
2022/08/24 09:04:40;;;;;;;4.47;1.65;;;;;;;23.45;81.70;101271.03;7383251;19;20016;-65
2022/08/24 09:07:45;;;;;;;2.17;0.70;;;;;;;23.46;80.39;101271.84;7388252;19;20015;-66
2022/08/24 09:10:49;;;;;;;4.63;0.85;;;;;;;23.51;80.96;101271.97;7389407;19;20346;-67
2022/08/24 09:13:26;;;;;;;5.85;1.80;;;;;;;23.51;80.88;101266.59;7387365;19;20018;-67
2022/08/24 09:16:14;;;;;;;4.90;1.67;;;;;;;23.51;80.13;101275.50;7386348;19;20369;-66
2022/08/24 09:18:49;;;;;;;9.25;5.53;;;;;;;23.53;79.83;101275.25;7386102;19;20015;-65
2022/08/24 09:21:34;;;;;;;2.15;0.80;;;;;;;23.55;79.85;101278.53;7387554;19;20014;-67
2022/08/24 09:24:51;;;;;;;4.93;0.80;;;;;;;23.58;80.18;101275.38;7386936;19;20525;-66
2022/08/24 09:27:20;;;;;;;3.35;0.60;;;;;;;23.63;79.72;101275.53;7384516;19;20085;-66
2022/08/24 09:30:04;;;;;;;7.63;2.47;;;;;;;23.67;79.52;101276.72;7387866;19;20425;-66
2022/08/24 09:32:55;;;;;;;7.38;3.63;;;;;;;23.72;79.55;101276.88;7387596;19;20010;-62
2022/08/24 09:35:41;;;;;;;7.82;4.13;;;;;;;23.79;80.49;101266.81;7384981;19;20036;-63
2022/08/24 09:38:39;;;;;;;4.75;1.90;;;;;;;23.82;79.04;101271.75;7386128;19;20015;-64
2022/08/24 09:41:09;;;;;;;3.25;1.27;;;;;;;23.82;78.04;101279.81;7386455;19;20715;-65
2022/08/24 09:44:14;;;;;;;4.45;1.23;;;;;;;23.84;78.00;101283.09;7385518;19;20022;-64
2022/08/24 09:46:50;;;;;;;5.93;1.55;;;;;;;23.90;78.45;101276.78;7387326;19;20017;-64
2022/08/24 09:49:28;;;;;;;5.25;1.80;;;;;;;23.97;78.18;101271.34;7383890;19;20474;-64
2022/08/24 09:52:08;;;;;;;5.25;1.05;;;;;;;24.04;78.07;101266.66;7388130;19;20096;-62
2022/08/24 09:54:50;;;;;;;4.57;0.82;;;;;;;24.10;77.84;101263.03;7388048;19;20018;-63
2022/08/24 09:57:24;;;;;;;9.27;2.90;;;;;;;24.11;77.52;101265.50;7388965;19;20470;-63
2022/08/24 10:00:26;;;;;;;6.72;1.38;;;;;;;24.11;76.96;101259.31;7388505;19;20025;-64
2022/08/24 10:03:11;;;;;;;2.85;0.70;;;;;;;24.15;76.38;101263.16;7387232;19;20015;-66
2022/08/24 10:05:59;;;;;;;5.03;1.80;;;;;;;24.22;75.72;101263.94;7384826;19;20010;-64
2022/08/24 10:08:58;;;;;;;7.95;3.58;;;;;;;24.29;75.74;101252.00;7386107;19;20074;-64
2022/08/24 10:11:46;;;;;;;4.30;0.98;;;;;;;24.37;75.63;101258.91;7387651;19;20043;-64
2022/08/24 10:14:51;;;;;;;6.45;3.45;;;;;;;24.44;75.26;101261.47;7384524;19;20031;-64
2022/08/24 10:17:41;;;;;;;3.67;1.60;;;;;;;24.50;74.01;101255.97;7387258;19;20024;-64
2022/08/24 10:20:22;;;;;;;5.28;1.42;;;;;;;24.54;73.96;101257.16;7384131;19;20093;-63
2022/08/24 10:23:09;;;;;;;2.00;0.90;;;;;;;24.56;73.58;101251.53;7382449;19;20003;-63
2022/08/24 10:25:53;;;;;;;4.50;1.25;;;;;;;24.58;73.28;101260.22;7386644;19;20325;-64
2022/08/24 10:28:30;;;;;;;4.97;1.75;;;;;;;24.61;73.61;101251.66;7386210;19;20635;-63
2022/08/24 10:31:17;;;;;;;6.72;2.72;;;;;;;24.64;72.29;101248.47;7385119;19;20505;-63
2022/08/24 10:34:08;;;;;;;3.28;1.00;;;;;;;24.67;71.39;101253.41;7385190;19;20025;-65
2022/08/24 10:36:53;;;;;;;2.58;0.77;;;;;;;24.74;71.44;101251.38;7384573;19;20102;-66
2022/08/24 10:39:49;;;;;;;6.50;3.22;;;;;;;24.86;71.95;101240.63;7382759;19;20014;-69
2022/08/24 10:45:28;;;;;;;5.30;1.40;;;;;;;25.01;68.88;101241.78;7385227;19;20025;-66
2022/08/24 10:48:29;;;;;;;1.58;0.30;;;;;;;25.09;68.44;101235.22;7381942;19;20010;-67
2022/08/24 10:51:22;;;;;;;2.40;1.35;;;;;;;25.17;68.28;101239.41;7381750;19;20998;-67
2022/08/24 10:53:53;;;;;;;3.13;1.20;;;;;;;25.22;67.45;101236.81;7380857;19;20463;-63
2022/08/24 10:56:34;;;;;;;6.25;1.40;;;;;;;25.29;68.05;101229.41;7387180;19;20027;-63
2022/08/24 10:59:28;;;;;;;3.83;0.90;;;;;;;25.35;68.36;101231.13;7383119;19;20498;-63
2022/08/24 11:02:06;;;;;;;5.43;2.13;;;;;;;25.38;67.85;101222.59;7385203;19;20011;-63
2022/08/24 11:04:39;;;;;;;5.03;1.02;;;;;;;25.39;67.27;101216.13;7379595;19;20018;-63
2022/08/24 11:07:17;;;;;;;4.85;1.35;;;;;;;25.38;66.60;101227.97;7385498;19;20011;-64
2022/08/24 11:09:55;;;;;;;2.40;0.70;;;;;;;25.37;65.84;101232.53;7383790;19;20018;-65
2022/08/24 11:12:26;;;;;;;2.10;0.68;;;;;;;25.38;64.95;101225.28;7386864;19;20271;-65
2022/08/24 11:14:57;;;;;;;1.52;0.30;;;;;;;25.45;65.40;101228.63;7383611;19;20014;-65
2022/08/24 11:17:26;;;;;;;2.80;0.73;;;;;;;25.49;64.71;101229.81;7383581;19;20424;-65
2022/08/24 11:19:54;;;;;;;2.50;0.73;;;;;;;25.47;64.71;101227.34;7378549;19;20036;-67
2022/08/24 11:22:29;;;;;;;3.33;0.90;;;;;;;25.53;63.99;101230.94;7383464;19;20387;-67
2022/08/24 11:25:09;;;;;;;4.05;1.35;;;;;;;25.58;64.04;101222.16;7379451;19;20474;-65
2022/08/24 11:27:39;;;;;;;2.35;1.08;;;;;;;25.62;64.11;101228.72;7383268;19;20010;-64
2022/08/24 11:30:16;;;;;;;4.85;1.52;;;;;;;25.66;63.60;101230.66;7384494;19;20024;-63
2022/08/24 11:32:49;;;;;;;1.63;0.90;;;;;;;25.69;63.87;101226.69;7382797;19;20419;-64
2022/08/24 11:35:22;;;;;;;2.22;0.50;;;;;;;25.69;62.79;101218.59;7380415;19;20033;-65
2022/08/24 11:37:56;;;;;;;0.90;0.30;;;;;;;25.71;63.41;101216.47;7383634;19;20394;-66
2022/08/24 11:40:33;;;;;;;6.85;1.40;;;;;;;25.76;63.75;101220.06;7383904;19;20483;-64
2022/08/24 11:43:27;;;;;;;1.70;0.52;;;;;;;25.81;63.95;101208.53;7384486;19;20085;-63
2022/08/24 11:46:00;;;;;;;2.15;0.65;;;;;;;25.85;65.01;101218.59;7383630;19;20017;-65
2022/08/24 11:48:53;;;;;;;5.40;0.75;;;;;;;25.85;64.01;101209.72;7389074;19;20448;-63
2022/08/24 11:52:01;;;;;;;4.10;0.63;;;;;;;25.86;64.04;101204.06;7392957;19;20482;-63
2022/08/24 11:54:35;;;;;;;5.43;1.10;;;;;;;25.84;64.39;101195.41;7390235;19;20021;-67
2022/08/24 11:57:06;;;;;;;4.97;0.60;;;;;;;25.83;63.75;101199.16;7392386;19;20501;-65
2022/08/24 12:00:03;;;;;;;2.67;1.02;;;;;;;25.82;63.02;101199.41;7388754;19;20015;-64
2022/08/24 12:02:59;;;;;;;2.00;0.65;;;;;;;25.86;63.69;101198.66;7391284;19;20006;-65
2022/08/24 12:05:59;;;;;;;3.83;0.50;;;;;;;25.93;63.25;101190.41;7389025;19;20022;-66
2022/08/24 12:08:34;;;;;;;1.75;0.50;;;;;;;26.04;63.24;101196.78;7386162;19;20014;-62